createdAt,value
2023-01-13T00:01:16.984Z,41.67
2023-01-13T00:03:44.731Z,48.17
2023-01-13T00:06:17.606Z,36.65
2023-01-13T00:08:45.054Z,33.97
2023-01-13T00:11:12.003Z,27.23
2023-01-13T00:13:39.025Z,27.30
2023-01-13T00:16:11.802Z,27.75
2023-01-13T00:18:38.904Z,25.75
2023-01-13T00:21:08.799Z,31.75
2023-01-13T00:23:36.245Z,65.15
2023-01-13T00:26:09.940Z,89.15
2023-01-13T00:28:37.375Z,88.85
2023-01-13T00:31:13.714Z,90.65
2023-01-13T00:33:41.179Z,82.03
2023-01-13T00:36:10.964Z,87.63
2023-01-13T00:38:38.963Z,84.88
2023-01-13T00:41:08.871Z,78.88
2023-01-13T00:43:36.955Z,75.60
2023-01-13T00:46:05.889Z,66.18
2023-01-13T00:48:33.792Z,62.80
2023-01-13T00:51:02.877Z,68.78
2023-01-13T00:53:35.201Z,67.53
2023-01-13T00:56:21.869Z,69.82
2023-01-13T00:58:49.109Z,68.82
2023-01-13T01:01:22.084Z,65.82
2023-01-13T01:03:50.415Z,65.80
2023-01-13T01:06:20.514Z,62.03
2023-01-13T01:08:47.945Z,54.72
2023-01-13T01:11:20.661Z,56.60
2023-01-13T01:13:48.965Z,39.85
2023-01-13T01:16:17.918Z,48.42
2023-01-13T01:18:47.682Z,48.03
2023-01-13T01:21:15.474Z,48.15
2023-01-13T01:23:42.617Z,50.53
2023-01-13T01:26:16.628Z,56.80
2023-01-13T01:28:44.455Z,53.65
2023-01-13T01:31:16.964Z,51.55
2023-01-13T01:33:44.406Z,47.85
2023-01-13T01:36:13.176Z,39.15
2023-01-13T01:38:40.439Z,45.03
2023-01-13T01:41:07.656Z,44.53
2023-01-13T01:44:08.256Z,53.85
2023-01-13T01:46:42.209Z,73.95
2023-01-13T01:49:32.817Z,58.35
2023-01-13T01:52:17.538Z,65.47
2023-01-13T01:55:09.322Z,56.42
2023-01-13T01:57:39.369Z,53.83
2023-01-13T02:00:07.368Z,71.82
2023-01-13T02:02:35.167Z,80.75
2023-01-13T02:05:02.786Z,87.75
2023-01-13T02:07:33.361Z,75.50
2023-01-13T02:10:06.406Z,77.13
2023-01-13T02:12:34.229Z,71.03
2023-01-13T02:15:14.565Z,62.78
2023-01-13T02:18:25.030Z,56.28
2023-01-13T02:21:10.323Z,57.80
2023-01-13T02:24:40.611Z,57.53
2023-01-13T02:27:13.509Z,56.35
2023-01-13T02:30:26.593Z,59.15
2023-01-13T02:33:05.303Z,51.15
2023-01-13T02:35:35.296Z,41.35
2023-01-13T02:38:04.310Z,39.15
2023-01-13T02:40:46.830Z,36.20
2023-01-13T02:43:58.168Z,35.75
2023-01-13T02:46:48.704Z,47.60
2023-01-13T02:49:25.935Z,49.92
2023-01-13T02:51:57.630Z,49.70
2023-01-13T02:54:28.552Z,54.50
2023-01-13T02:56:57.906Z,53.53
2023-01-13T02:59:27.890Z,53.10
2023-01-13T03:01:59.798Z,50.22
2023-01-13T03:04:55.406Z,49.83
2023-01-13T03:07:34.380Z,53.88
2023-01-13T03:10:28.385Z,54.20
2023-01-13T03:12:55.331Z,52.63
2023-01-13T03:16:03.590Z,51.30
2023-01-13T03:18:30.648Z,53.22
2023-01-13T03:21:06.496Z,51.20
2023-01-13T03:23:59.464Z,51.35
2023-01-13T03:26:32.565Z,48.70
2023-01-13T03:29:29.877Z,56.63
2023-01-13T03:32:12.661Z,45.80
2023-01-13T03:35:08.437Z,43.80
2023-01-13T03:37:42.556Z,40.33
2023-01-13T03:40:18.920Z,44.55
2023-01-13T03:43:11.231Z,45.88
2023-01-13T03:45:41.408Z,45.80
2023-01-13T03:48:12.643Z,45.50
2023-01-13T03:50:45.662Z,43.30
2023-01-13T03:53:16.898Z,42.88
2023-01-13T03:55:49.052Z,41.35
2023-01-13T03:58:27.593Z,38.28
2023-01-13T04:01:11.724Z,38.53
2023-01-13T04:03:54.025Z,41.88
2023-01-13T04:06:51.991Z,37.10
2023-01-13T04:09:52.808Z,40.42
2023-01-13T04:12:22.646Z,39.53
2023-01-13T04:14:50.833Z,44.63
2023-01-13T04:17:18.922Z,42.05
2023-01-13T04:19:46.083Z,45.50
2023-01-13T04:22:13.227Z,42.40
2023-01-13T04:24:40.364Z,38.58
2023-01-13T04:27:07.484Z,33.97
2023-01-13T04:29:34.616Z,37.38
2023-01-13T04:32:01.720Z,35.72
2023-01-13T04:34:31.611Z,34.97
2023-01-13T04:36:58.701Z,38.45
2023-01-13T04:39:25.619Z,39.67
2023-01-13T04:41:58.413Z,40.72
2023-01-13T04:44:26.629Z,31.33
2023-01-13T04:46:54.313Z,44.90
2023-01-13T04:49:21.490Z,40.13
2023-01-13T04:51:48.707Z,48.08
2023-01-13T04:54:16.331Z,44.05
2023-01-13T04:56:43.732Z,50.25
2023-01-13T04:59:12.338Z,52.03
2023-01-13T05:01:39.526Z,65.22
2023-01-13T05:04:07.901Z,53.03
2023-01-13T05:06:37.204Z,55.58
2023-01-13T05:09:04.327Z,78.72
2023-01-13T05:11:49.750Z,65.75
2023-01-13T05:14:35.413Z,63.35
2023-01-13T05:17:03.425Z,61.00
2023-01-13T05:19:36.029Z,60.28
2023-01-13T05:22:23.143Z,52.00
2023-01-13T05:25:08.490Z,50.22
2023-01-13T05:27:36.039Z,55.17
2023-01-13T05:30:03.130Z,57.55
2023-01-13T05:32:30.102Z,51.13
2023-01-13T05:34:57.475Z,57.50
2023-01-13T05:37:26.007Z,65.28
2023-01-13T05:40:11.433Z,73.57
2023-01-13T05:42:57.691Z,73.38
2023-01-13T05:45:25.242Z,67.72
2023-01-13T05:47:52.288Z,62.53
2023-01-13T05:50:19.428Z,60.00
2023-01-13T05:52:46.435Z,64.85
2023-01-13T05:55:13.533Z,63.97
2023-01-13T05:57:41.189Z,70.85
2023-01-13T06:00:08.980Z,67.60
2023-01-13T06:02:36.017Z,66.28
2023-01-13T06:05:03.315Z,75.82
2023-01-13T06:07:30.469Z,83.43
2023-01-13T06:09:57.422Z,74.30
2023-01-13T06:12:24.415Z,74.53
2023-01-13T06:14:51.933Z,81.32
2023-01-13T06:17:19.392Z,77.47
2023-01-13T06:19:46.405Z,69.75
2023-01-13T06:22:24.125Z,70.22
2023-01-13T06:24:53.810Z,72.65
2023-01-13T06:27:22.607Z,70.32
2023-01-13T06:29:50.009Z,74.13
2023-01-13T06:32:28.878Z,86.88
2023-01-13T06:35:08.940Z,94.90
2023-01-13T06:37:37.042Z,93.53
2023-01-13T06:40:07.037Z,121.55
2023-01-13T06:42:55.279Z,94.45
2023-01-13T06:45:24.153Z,90.75
2023-01-13T06:47:52.029Z,89.93
2023-01-13T06:50:19.218Z,87.13
2023-01-13T06:52:46.577Z,83.68
2023-01-13T06:55:13.810Z,84.28
2023-01-13T06:57:52.898Z,84.88
2023-01-13T07:00:21.078Z,78.72
2023-01-13T07:02:48.374Z,89.75
2023-01-13T07:05:16.684Z,93.00
2023-01-13T07:07:43.837Z,119.32
2023-01-13T07:10:13.344Z,87.00
2023-01-13T07:13:00.350Z,176.57
2023-01-13T07:15:27.653Z,217.75
2023-01-13T07:17:54.617Z,178.23
2023-01-13T07:20:21.858Z,144.23
2023-01-13T07:22:54.179Z,151.00
2023-01-13T07:25:21.975Z,170.90
2023-01-13T07:27:49.290Z,147.75
2023-01-13T07:30:16.577Z,113.45
2023-01-13T07:32:43.771Z,109.25
2023-01-13T07:35:10.871Z,103.63
2023-01-13T07:37:39.784Z,91.25
2023-01-13T07:40:07.875Z,96.25
2023-01-13T07:42:56.710Z,90.63
2023-01-13T07:45:23.937Z,98.65
2023-01-13T07:47:53.003Z,102.97
2023-01-13T07:50:22.012Z,102.20
2023-01-13T07:52:49.151Z,93.32
2023-01-13T07:55:16.379Z,84.85
2023-01-13T07:57:43.432Z,103.03
2023-01-13T08:00:12.855Z,91.88
2023-01-13T08:02:40.199Z,92.97
2023-01-13T08:05:08.171Z,82.55
2023-01-13T08:07:36.070Z,85.47
2023-01-13T08:10:04.253Z,79.10
2023-01-13T08:12:53.316Z,85.43
2023-01-13T08:15:32.539Z,79.47
2023-01-13T08:17:59.534Z,96.15
2023-01-13T08:20:26.724Z,77.88
2023-01-13T08:22:58.562Z,79.53
2023-01-13T08:25:27.314Z,88.55
2023-01-13T08:27:55.136Z,78.68
2023-01-13T08:30:22.936Z,80.05
2023-01-13T08:32:51.290Z,83.25
2023-01-13T08:35:18.801Z,80.07
2023-01-13T08:37:47.427Z,87.60
2023-01-13T08:40:16.898Z,89.78
2023-01-13T08:42:44.263Z,100.75
2023-01-13T08:45:13.454Z,103.95
2023-01-13T08:47:41.079Z,100.43
2023-01-13T08:50:09.269Z,95.00
2023-01-13T08:52:36.501Z,92.25
2023-01-13T08:55:03.819Z,95.75
2023-01-13T08:57:31.310Z,97.20
2023-01-13T08:59:58.638Z,95.68
2023-01-13T09:02:26.856Z,111.88
2023-01-13T09:04:54.442Z,99.38
2023-01-13T09:07:21.994Z,105.35
2023-01-13T09:09:49.140Z,92.93
2023-01-13T09:12:35.260Z,115.45
2023-01-13T09:15:04.429Z,123.65
2023-01-13T09:17:31.480Z,109.05
2023-01-13T09:19:58.587Z,141.95
2023-01-13T09:22:28.184Z,139.75
2023-01-13T09:24:55.792Z,123.00
2023-01-13T09:27:23.765Z,111.40
2023-01-13T09:29:50.791Z,107.07
2023-01-13T09:32:18.320Z,103.25
2023-01-13T09:35:00.672Z,104.38
2023-01-13T09:37:28.766Z,92.05
2023-01-13T09:39:56.545Z,109.68
2023-01-13T09:42:51.141Z,96.90
2023-01-13T09:45:46.967Z,76.75
2023-01-13T09:48:21.943Z,66.18
2023-01-13T09:51:06.692Z,73.53
2023-01-13T09:53:49.883Z,66.65
2023-01-13T09:56:16.992Z,64.68
2023-01-13T09:58:45.715Z,51.63
2023-01-13T10:01:24.745Z,48.13
2023-01-13T10:03:52.148Z,45.10
2023-01-13T10:06:28.392Z,37.10
2023-01-13T10:08:57.474Z,35.10
2023-01-13T10:11:48.589Z,38.78
2023-01-13T10:14:39.995Z,36.38
2023-01-13T10:17:16.054Z,36.10
2023-01-13T10:20:05.426Z,32.70
2023-01-13T10:22:48.207Z,28.05
2023-01-13T10:25:30.646Z,28.38
2023-01-13T10:28:08.216Z,24.23
2023-01-13T10:30:40.295Z,24.50
2023-01-13T10:33:10.689Z,22.97
2023-01-13T10:35:59.304Z,26.80
2023-01-13T10:38:39.698Z,24.85
2023-01-13T10:41:20.249Z,23.80
2023-01-13T10:44:02.435Z,26.85
2023-01-13T10:46:31.072Z,35.42
2023-01-13T10:49:00.759Z,37.17
2023-01-13T10:51:39.610Z,46.83
2023-01-13T10:54:15.448Z,35.03
2023-01-13T10:56:47.390Z,38.05
2023-01-13T10:59:23.420Z,36.30
2023-01-13T11:02:13.110Z,38.17
2023-01-13T11:05:00.796Z,36.65
2023-01-13T11:07:52.581Z,31.75
2023-01-13T11:10:27.693Z,35.53
2023-01-13T11:13:03.348Z,33.53
2023-01-13T11:16:01.815Z,25.67
2023-01-13T11:18:41.006Z,21.63
2023-01-13T11:21:53.538Z,23.58
2023-01-13T11:24:36.608Z,15.55
2023-01-13T11:27:14.700Z,34.45
2023-01-13T11:30:09.808Z,41.65
2023-01-13T11:33:01.655Z,33.88
2023-01-13T11:35:31.863Z,26.77
2023-01-13T11:38:06.657Z,30.85
2023-01-13T11:40:39.265Z,22.67
2023-01-13T11:43:30.890Z,27.15
2023-01-13T11:46:00.390Z,22.88
2023-01-13T11:48:35.347Z,21.98
2023-01-13T11:51:14.166Z,25.50
2023-01-13T11:53:47.009Z,24.52
2023-01-13T11:56:27.477Z,24.73
2023-01-13T11:58:54.549Z,26.27
2023-01-13T12:01:43.630Z,20.58
2023-01-13T12:05:07.957Z,21.45
2023-01-13T12:07:47.587Z,26.95
2023-01-13T12:10:28.007Z,21.63
2023-01-13T12:13:24.232Z,25.67
2023-01-13T12:16:35.486Z,20.10
2023-01-13T12:19:28.200Z,20.38
2023-01-13T12:22:13.571Z,18.55
2023-01-13T12:24:46.308Z,22.55
2023-01-13T12:27:18.403Z,24.35
2023-01-13T12:29:48.262Z,23.75
2023-01-13T12:32:22.051Z,23.15
2023-01-13T12:34:54.868Z,21.88
2023-01-13T12:37:43.012Z,22.08
2023-01-13T12:40:22.162Z,18.55
2023-01-13T12:43:10.681Z,23.58
2023-01-13T12:45:37.784Z,28.50
2023-01-13T12:48:05.800Z,28.98
2023-01-13T12:50:32.690Z,27.85
2023-01-13T12:53:30.049Z,31.05
2023-01-13T12:56:28.086Z,30.50
2023-01-13T12:59:19.175Z,33.97
2023-01-13T13:01:48.646Z,41.67
2023-01-13T13:04:56.281Z,32.88
2023-01-13T13:07:26.725Z,46.30
2023-01-13T13:10:12.035Z,52.50
2023-01-13T13:13:00.213Z,64.50
2023-01-13T13:15:29.713Z,64.30
2023-01-13T13:17:59.921Z,53.83
2023-01-13T13:21:04.259Z,67.78
2023-01-13T13:23:36.767Z,66.55
2023-01-13T13:26:26.185Z,70.53
2023-01-13T13:29:18.088Z,72.57
2023-01-13T13:31:44.996Z,76.18
2023-01-13T13:34:21.831Z,69.20
2023-01-13T13:37:16.534Z,62.55
2023-01-13T13:40:05.405Z,63.05
2023-01-13T13:42:59.494Z,63.45
2023-01-13T13:45:46.061Z,67.20
2023-01-13T13:48:39.322Z,67.07
2023-01-13T13:51:31.847Z,67.10
2023-01-13T13:53:59.810Z,65.27
2023-01-13T13:56:29.131Z,72.25
2023-01-13T13:58:56.320Z,59.17
2023-01-13T14:01:28.414Z,69.28
2023-01-13T14:04:04.307Z,72.88
2023-01-13T14:06:32.953Z,73.72
2023-01-13T14:09:00.117Z,78.90
2023-01-13T14:11:29.665Z,67.80
2023-01-13T14:14:06.820Z,72.63
2023-01-13T14:16:36.281Z,95.82
2023-01-13T14:19:03.776Z,76.20
2023-01-13T14:21:31.474Z,81.05
2023-01-13T14:24:10.969Z,69.50
2023-01-13T14:26:39.479Z,57.05
2023-01-13T14:29:06.974Z,65.07
2023-01-13T14:31:35.121Z,62.75
2023-01-13T14:34:30.639Z,57.72
2023-01-13T14:36:51.464Z,54.00
2023-01-13T14:39:18.482Z,62.08
2023-01-13T14:41:48.292Z,69.45
2023-01-13T14:44:20.902Z,62.05
2023-01-13T14:46:48.161Z,61.03
2023-01-13T14:49:51.691Z,61.75
2023-01-13T14:52:24.512Z,57.03
2023-01-13T14:55:21.230Z,48.63
2023-01-13T14:57:48.661Z,48.33
2023-01-13T15:00:15.686Z,48.65
2023-01-13T15:02:44.365Z,47.50
2023-01-13T15:05:17.525Z,48.58
2023-01-13T15:08:11.125Z,50.30
2023-01-13T15:10:47.132Z,45.25
2023-01-13T15:13:26.312Z,41.20
2023-01-13T15:15:58.970Z,47.38
2023-01-13T15:18:26.456Z,47.22
2023-01-13T15:20:53.786Z,43.67
2023-01-13T15:23:21.443Z,44.15
2023-01-13T15:25:49.379Z,43.35
2023-01-13T15:28:22.964Z,42.15
2023-01-13T15:30:51.973Z,46.50
2023-01-13T15:33:19.499Z,43.85
2023-01-13T15:35:49.363Z,48.15
2023-01-13T15:38:21.311Z,42.03
2023-01-13T15:40:49.511Z,38.00
2023-01-13T15:43:42.442Z,40.22
2023-01-13T15:46:20.122Z,47.45
2023-01-13T15:48:50.610Z,44.22
2023-01-13T15:51:21.915Z,35.85
2023-01-13T15:53:49.295Z,40.88
2023-01-13T15:56:25.624Z,37.58
2023-01-13T15:58:53.311Z,50.45
2023-01-13T16:01:21.018Z,52.08
2023-01-13T16:03:48.331Z,56.28
2023-01-13T16:06:20.990Z,49.50
2023-01-13T16:08:48.224Z,47.25
2023-01-13T16:11:15.431Z,47.50
2023-01-13T16:13:42.561Z,50.30
2023-01-13T16:16:22.366Z,57.50
2023-01-13T16:18:50.228Z,60.50
2023-01-13T16:21:20.605Z,70.30
2023-01-13T16:23:48.935Z,119.90
2023-01-13T16:26:27.299Z,105.57
2023-01-13T16:28:56.566Z,104.25
2023-01-13T16:31:33.037Z,114.13
2023-01-13T16:34:01.569Z,111.38
2023-01-13T16:36:34.908Z,73.47
2023-01-13T16:39:04.720Z,76.88
2023-01-13T16:41:34.739Z,79.30
2023-01-13T16:44:06.158Z,71.97
2023-01-13T16:46:34.336Z,92.43
2023-01-13T16:49:06.055Z,82.47
2023-01-13T16:51:34.444Z,81.07
2023-01-13T16:54:01.423Z,89.15
2023-01-13T16:56:31.317Z,78.38
2023-01-13T16:59:02.633Z,77.15
2023-01-13T17:01:37.461Z,78.25
2023-01-13T17:04:05.723Z,76.22
2023-01-13T17:06:41.803Z,74.82
2023-01-13T17:09:16.320Z,72.22
2023-01-13T17:11:43.606Z,70.80
2023-01-13T17:14:19.289Z,76.10
2023-01-13T17:16:47.714Z,70.22
2023-01-13T17:19:14.780Z,78.35
2023-01-13T17:21:42.535Z,104.15
2023-01-13T17:24:12.503Z,89.45
2023-01-13T17:26:44.067Z,80.22
2023-01-13T17:29:17.931Z,81.80
2023-01-13T17:31:45.182Z,69.70
2023-01-13T17:34:13.440Z,69.15
2023-01-13T17:36:40.901Z,74.10
2023-01-13T17:39:07.873Z,86.88
2023-01-13T17:41:34.998Z,84.28
2023-01-13T17:44:01.975Z,84.65
2023-01-13T17:46:29.133Z,74.47
2023-01-13T17:48:56.279Z,78.32
2023-01-13T17:51:25.225Z,87.72
2023-01-13T17:53:53.634Z,77.28
2023-01-13T17:56:20.873Z,88.75
2023-01-13T17:58:48.134Z,80.70
2023-01-13T18:01:18.633Z,77.25
2023-01-13T18:03:46.543Z,76.15
2023-01-13T18:06:19.135Z,76.55
2023-01-13T18:08:46.790Z,81.15
2023-01-13T18:11:18.864Z,79.10
2023-01-13T18:13:49.767Z,75.32
2023-01-13T18:16:19.348Z,78.68
2023-01-13T18:18:48.756Z,79.28
2023-01-13T18:21:45.114Z,76.35
2023-01-13T18:24:35.664Z,80.30
2023-01-13T18:27:21.518Z,81.95
2023-01-13T18:29:53.810Z,72.57
2023-01-13T18:32:22.050Z,81.90
2023-01-13T18:34:51.978Z,81.68
2023-01-13T18:37:21.416Z,81.82
2023-01-13T18:39:48.687Z,74.25
2023-01-13T18:42:34.023Z,81.75
2023-01-13T18:45:01.175Z,75.97
2023-01-13T18:47:30.856Z,73.05
2023-01-13T18:49:58.449Z,77.07
2023-01-13T18:52:26.278Z,69.30
2023-01-13T18:54:53.689Z,72.57
2023-01-13T18:57:21.675Z,71.20
2023-01-13T18:59:48.820Z,77.75
2023-01-13T19:02:18.305Z,74.72
2023-01-13T19:04:46.087Z,71.93
2023-01-13T19:07:16.872Z,72.28
2023-01-13T19:09:44.249Z,92.35
2023-01-13T19:12:13.072Z,85.40
2023-01-13T19:14:42.365Z,80.55
2023-01-13T19:17:16.288Z,89.72
2023-01-13T19:19:45.907Z,91.43
2023-01-13T19:22:16.343Z,98.68
2023-01-13T19:24:43.797Z,99.13
2023-01-13T19:27:14.311Z,91.43
2023-01-13T19:29:46.051Z,97.72
2023-01-13T19:32:19.973Z,120.00
2023-01-13T19:34:49.262Z,113.57
2023-01-13T19:37:17.156Z,130.73
2023-01-13T19:39:44.984Z,127.22
2023-01-13T19:42:30.685Z,121.55
2023-01-13T19:45:16.535Z,113.00
2023-01-13T19:47:45.643Z,133.45
2023-01-13T19:50:14.413Z,123.95
2023-01-13T19:52:43.539Z,118.57
2023-01-13T19:55:12.899Z,122.18
2023-01-13T19:57:41.281Z,119.63
2023-01-13T20:00:09.412Z,110.60
2023-01-13T20:02:37.094Z,122.38
2023-01-13T20:05:06.674Z,109.28
2023-01-13T20:07:35.331Z,138.68
2023-01-13T20:10:03.022Z,185.32
2023-01-13T20:12:30.088Z,166.13
2023-01-13T20:14:57.182Z,203.15
2023-01-13T20:17:25.874Z,184.40
2023-01-13T20:19:53.034Z,187.82
2023-01-13T20:22:20.362Z,177.25
2023-01-13T20:24:48.651Z,186.48
2023-01-13T20:27:15.692Z,211.60
2023-01-13T20:29:42.805Z,192.43
2023-01-13T20:32:09.837Z,152.98
2023-01-13T20:34:36.976Z,158.52
2023-01-13T20:37:04.096Z,160.57
2023-01-13T20:39:31.632Z,158.23
2023-01-13T20:42:17.066Z,145.80
2023-01-13T20:44:47.229Z,141.55
2023-01-13T20:47:14.605Z,131.45
2023-01-13T20:49:41.806Z,142.20
2023-01-13T20:52:09.624Z,124.30
2023-01-13T20:54:41.029Z,122.50
2023-01-13T20:57:10.142Z,108.43
2023-01-13T20:59:38.536Z,111.55
2023-01-13T21:02:07.836Z,101.55
2023-01-13T21:04:35.693Z,103.55
2023-01-13T21:07:03.290Z,104.35
2023-01-13T21:09:31.046Z,104.22
2023-01-13T21:12:17.123Z,111.70
2023-01-13T21:15:02.824Z,101.30
2023-01-13T21:17:48.587Z,99.47
2023-01-13T21:20:16.052Z,102.25
2023-01-13T21:22:48.104Z,101.05
2023-01-13T21:25:16.846Z,106.78
2023-01-13T21:27:46.636Z,101.88
2023-01-13T21:30:16.012Z,98.20
2023-01-13T21:32:44.516Z,112.68
2023-01-13T21:35:13.057Z,108.47
2023-01-13T21:37:41.665Z,116.35
2023-01-13T21:40:12.210Z,115.45
2023-01-13T21:42:57.735Z,115.85
2023-01-13T21:45:43.485Z,127.00
2023-01-13T21:48:10.830Z,119.35
2023-01-13T21:50:38.412Z,118.43
2023-01-13T21:53:07.583Z,113.90
2023-01-13T21:55:36.946Z,144.45
2023-01-13T21:58:11.729Z,138.38
2023-01-13T22:00:40.242Z,131.55
2023-01-13T22:03:08.920Z,136.20
2023-01-13T22:05:36.622Z,124.55
2023-01-13T22:08:04.496Z,127.55
2023-01-13T22:10:32.261Z,115.68
2023-01-13T22:13:21.211Z,117.63
2023-01-13T22:15:48.960Z,114.70
2023-01-13T22:18:18.145Z,122.30
2023-01-13T22:20:45.462Z,135.25
2023-01-13T22:23:12.651Z,132.10
2023-01-13T22:25:39.694Z,128.95
2023-01-13T22:28:09.189Z,140.88
2023-01-13T22:30:36.575Z,129.07
2023-01-13T22:33:03.672Z,134.48
2023-01-13T22:35:30.779Z,129.98
2023-01-13T22:37:58.870Z,122.22
2023-01-13T22:40:26.049Z,129.43
2023-01-13T22:42:53.077Z,127.65
2023-01-13T22:45:20.334Z,125.63
2023-01-13T22:47:48.179Z,129.93
2023-01-13T22:50:17.750Z,138.23
2023-01-13T22:52:44.738Z,140.45
2023-01-13T22:55:11.771Z,156.93
2023-01-13T22:57:47.369Z,151.30
2023-01-13T23:00:18.946Z,153.70
2023-01-13T23:02:46.296Z,149.57
2023-01-13T23:05:14.040Z,143.45
2023-01-13T23:07:41.411Z,141.15
2023-01-13T23:10:09.011Z,144.60
2023-01-13T23:12:35.957Z,146.68
2023-01-13T23:15:04.229Z,147.35
2023-01-13T23:17:31.574Z,138.77
2023-01-13T23:19:58.514Z,143.18
2023-01-13T23:22:25.510Z,149.18
2023-01-13T23:24:52.580Z,154.30
2023-01-13T23:27:19.690Z,140.45
2023-01-13T23:29:46.752Z,142.70
2023-01-13T23:32:13.806Z,144.27
2023-01-13T23:34:40.845Z,147.27
2023-01-13T23:37:07.875Z,161.52
2023-01-13T23:39:34.945Z,146.05
2023-01-13T23:42:02.064Z,151.25
2023-01-13T23:44:29.625Z,150.38
2023-01-13T23:46:56.721Z,152.10
2023-01-13T23:49:23.800Z,171.48
2023-01-13T23:51:51.756Z,151.90
2023-01-13T23:54:18.941Z,138.95
2023-01-13T23:56:46.123Z,135.40
2023-01-13T23:59:13.252Z,135.20
